»·PEaware :: N535EG KLAX-KSAN

N535EG :: KLAX-KSAN

FLIGHT INFORMATION

Flight Status: Arrived
Operator: Privately registered:
United States
More flights under this callsign
Pilot: Anonymous 17686 (17686)
Aircraft: CESSNA 182 SKYLANE
(C182)
More flights by this aircraft type
Origin: KLAX Los Angeles Intl
United States
Destination: KSAN San Diego Intl-Lindbergh
United States
More flights between these airports :: More routes between these airports
Route: +
File this flight plan on PilotEdge
Remarks: CAT11
Altitude:
(Current/Filed)
5,500ft
Speed:
(Current/Filed)
0kts
Departed: 01-Jan-18 05:05 PM
Arrived: 01-Jan-18 07:15 PM
Distance/Time
Traveled:
95nm/2:10
Distance/Time
To Go:
Arrived

Flight Plot

Page will automatically refresh every two minutes.


Map Options




Map Legend


Flown Route
Filed Route
Departure Airport
Arrival Airport
Navaid (VOR, NDB)
Fix

Horizontal Profiles

Position Reports

Time Latitude Longitude Heading Altitude Ground
Speed
01-Jan-18 16:54 33.933688 -118.397088 261 129ft 0kts
01-Jan-18 16:55 33.933688 -118.397089 261 129ft 0kts
01-Jan-18 16:56 33.933687 -118.397089 261 129ft 0kts
01-Jan-18 16:57 33.933687 -118.397090 261 129ft 0kts
01-Jan-18 16:58 33.933687 -118.397091 261 129ft 0kts
01-Jan-18 16:59 33.933687 -118.397092 261 129ft 0kts
01-Jan-18 17:00 33.933976 -118.397287 1 129ft 0kts
01-Jan-18 17:01 33.933977 -118.397287 1 129ft 0kts
01-Jan-18 17:02 33.933978 -118.397287 1 129ft 0kts
01-Jan-18 17:03 33.933979 -118.397287 1 129ft 0kts
01-Jan-18 17:04 33.934312 -118.397090 18 129ft 4kts
01-Jan-18 17:05 33.935075 -118.393001 82 129ft 8kts
01-Jan-18 17:06 33.935481 -118.389169 80 129ft 21kts
01-Jan-18 17:07 33.935889 -118.384800 79 129ft 22kts
01-Jan-18 17:08 33.936382 -118.382931 45 129ft 0kts
01-Jan-18 17:09 33.936460 -118.382883 6 129ft 0kts
01-Jan-18 17:10 33.936465 -118.382882 6 129ft 0kts
01-Jan-18 17:11 33.935714 -118.400315 264 548ft 92kts
01-Jan-18 17:12 33.933653 -118.429770 262 1804ft 85kts
01-Jan-18 17:13 33.914872 -118.447477 182 2600ft 115kts
01-Jan-18 17:14 33.880597 -118.453100 193 3133ft 130kts
01-Jan-18 17:15 33.844937 -118.463320 194 3632ft 132kts
01-Jan-18 17:16 33.809242 -118.473860 194 4104ft 129kts
01-Jan-18 17:17 33.774725 -118.477255 165 4600ft 124kts
01-Jan-18 17:18 33.742536 -118.464718 133 5099ft 121kts
01-Jan-18 17:19 33.719182 -118.435721 133 5493ft 125kts
01-Jan-18 17:20 33.693913 -118.404247 132 5506ft 134kts
01-Jan-18 17:21 33.668536 -118.370991 116 5496ft 135kts
01-Jan-18 17:22 33.651133 -118.331258 117 5507ft 134kts
01-Jan-18 17:23 33.637958 -118.290402 103 5510ft 129kts
01-Jan-18 17:24 33.629701 -118.248585 103 5515ft 128kts
01-Jan-18 17:25 33.621671 -118.208216 103 5516ft 128kts
01-Jan-18 17:26 33.620540 -118.165844 85 5522ft 128kts
01-Jan-18 17:27 33.623059 -118.123202 85 5511ft 128kts
01-Jan-18 17:28 33.625545 -118.081635 85 5508ft 128kts
01-Jan-18 17:29 33.628022 -118.038207 85 5502ft 131kts
01-Jan-18 17:30 33.630523 -117.994625 85 5500ft 131kts
01-Jan-18 17:31 33.620201 -117.957945 162 5504ft 129kts
01-Jan-18 17:32 33.586557 -117.941575 151 5503ft 131kts
01-Jan-18 17:33 33.554578 -117.920181 144 5498ft 132kts
01-Jan-18 17:34 33.530092 -117.887408 130 5502ft 131kts
01-Jan-18 17:35 33.506006 -117.854312 130 5501ft 132kts
01-Jan-18 17:36 33.481870 -117.821147 130 5501ft 132kts
01-Jan-18 17:37 33.457643 -117.787868 130 5500ft 132kts
01-Jan-18 17:38 33.433507 -117.754723 130 5500ft 132kts
01-Jan-18 17:39 33.409366 -117.721580 130 5499ft 132kts
01-Jan-18 17:40 33.385138 -117.688328 130 5500ft 132kts
01-Jan-18 17:41 33.356795 -117.660650 143 5500ft 132kts
01-Jan-18 17:42 33.326922 -117.634770 143 5500ft 132kts
01-Jan-18 17:43 33.297136 -117.609238 144 5500ft 132kts
01-Jan-18 17:44 33.266834 -117.583943 144 5500ft 132kts
01-Jan-18 17:45 33.236571 -117.558707 144 5500ft 132kts
01-Jan-18 17:46 33.206398 -117.533554 144 5500ft 132kts
01-Jan-18 17:47 33.176230 -117.508415 144 5500ft 132kts
01-Jan-18 17:48 33.145989 -117.483220 144 5500ft 132kts
01-Jan-18 17:49 33.115815 -117.458098 144 5500ft 132kts
01-Jan-18 17:50 33.085521 -117.432879 144 5500ft 132kts
01-Jan-18 17:51 33.055303 -117.407732 144 5500ft 132kts
01-Jan-18 17:52 33.026499 -117.383773 144 5110ft 109kts
01-Jan-18 17:53 33.003629 -117.364685 144 4592ft 95kts
01-Jan-18 17:54 32.982102 -117.346830 148 4091ft 94kts
01-Jan-18 17:55 32.959849 -117.332707 151 3618ft 93kts
01-Jan-18 17:56 32.939728 -117.319852 149 3552ft 78kts
01-Jan-18 17:57 32.912630 -117.302500 149 3494ft 126kts
01-Jan-18 17:58 32.881195 -117.282156 156 3500ft 129kts
01-Jan-18 17:59 32.848809 -117.265051 155 3112ft 121kts
01-Jan-18 18:16 33.933673 -118.397276 267 129ft 0kts
01-Jan-18 18:17 33.933673 -118.397283 267 129ft 0kts
01-Jan-18 18:18 33.933673 -118.397290 267 129ft 0kts
01-Jan-18 18:19 33.933673 -118.397297 267 129ft 0kts
01-Jan-18 18:20 33.934098 -118.398266 326 129ft 11kts
01-Jan-18 18:21 33.934828 -118.395241 90 129ft 3kts
01-Jan-18 18:22 33.935230 -118.391470 80 129ft 12kts
01-Jan-18 18:23 33.935779 -118.386075 83 129ft 17kts
01-Jan-18 18:24 33.936425 -118.382945 25 129ft 0kts
01-Jan-18 18:25 33.937056 -118.383052 314 129ft 10kts
01-Jan-18 18:26 33.934568 -118.406825 264 693ft 103kts
01-Jan-18 18:27 33.931143 -118.441152 262 1869ft 100kts
01-Jan-18 18:28 33.927741 -118.474868 266 2700ft 107kts
01-Jan-18 18:29 33.922111 -118.509803 248 3197ft 102kts
01-Jan-18 18:30 33.899459 -118.526428 180 3703ft 103kts
01-Jan-18 18:31 33.870796 -118.522526 172 4212ft 108kts
01-Jan-18 18:32 33.836644 -118.517731 172 4501ft 138kts
01-Jan-18 18:33 33.798734 -118.510351 163 4810ft 134kts
01-Jan-18 18:34 33.765151 -118.493237 149 5313ft 129kts
01-Jan-18 18:35 33.735674 -118.467813 136 5629ft 139kts
01-Jan-18 18:36 33.713461 -118.442461 135 5498ft 91kts
01-Jan-18 18:37 33.697281 -118.423186 127 5499ft 74kts
01-Jan-18 18:38 33.683221 -118.402820 129 5510ft 99kts
01-Jan-18 18:39 33.663190 -118.374005 129 5490ft 111kts
01-Jan-18 18:40 33.655048 -118.340324 92 5504ft 108kts
01-Jan-18 18:41 33.655809 -118.300381 83 5501ft 130kts
01-Jan-18 18:42 33.664525 -118.258569 74 5500ft 133kts
01-Jan-18 18:43 33.673797 -118.215286 78 5498ft 134kts
01-Jan-18 18:44 33.665480 -118.171813 104 5501ft 134kts
01-Jan-18 18:45 33.655470 -118.128424 104 5500ft 134kts
01-Jan-18 18:46 33.642916 -118.087903 127 5499ft 134kts
01-Jan-18 18:47 33.620093 -118.052094 126 5500ft 135kts
01-Jan-18 18:48 33.597311 -118.016391 126 5501ft 134kts
01-Jan-18 18:49 33.574506 -117.980664 126 5500ft 135kts
01-Jan-18 18:50 33.551637 -117.944842 126 5500ft 135kts
01-Jan-18 18:51 33.528822 -117.909119 126 5500ft 135kts
01-Jan-18 18:52 33.505899 -117.873234 126 5500ft 135kts
01-Jan-18 18:53 33.483094 -117.837544 126 5500ft 135kts
01-Jan-18 18:54 33.459249 -117.802979 139 5498ft 135kts
01-Jan-18 18:55 33.429703 -117.775001 146 5498ft 135kts
01-Jan-18 18:56 33.397376 -117.752066 147 5500ft 135kts
01-Jan-18 18:57 33.365992 -117.727301 145 5500ft 135kts
01-Jan-18 18:58 33.335009 -117.701513 144 5500ft 135kts
01-Jan-18 18:59 33.304392 -117.675409 143 5500ft 135kts
01-Jan-18 19:00 33.273803 -117.649063 143 5500ft 135kts
01-Jan-18 19:01 33.243549 -117.622910 143 5500ft 135kts
01-Jan-18 19:02 33.212893 -117.596381 143 5500ft 135kts
01-Jan-18 19:03 33.182360 -117.569958 143 5500ft 135kts
01-Jan-18 19:04 33.151897 -117.543610 143 5501ft 135kts
01-Jan-18 19:05 33.121326 -117.517193 143 5501ft 135kts
01-Jan-18 19:06 33.090833 -117.490857 143 5500ft 135kts
01-Jan-18 19:07 33.060314 -117.464520 143 5499ft 136kts
01-Jan-18 19:08 33.029418 -117.437875 143 5501ft 137kts
01-Jan-18 19:09 32.998342 -117.411101 143 5221ft 138kts
01-Jan-18 19:10 32.968699 -117.385567 143 4677ft 125kts
01-Jan-18 19:11 32.940817 -117.361578 143 4194ft 122kts
01-Jan-18 19:12 32.913978 -117.338505 143 3715ft 122kts
01-Jan-18 19:13 32.886388 -117.314801 143 3223ft 121kts
01-Jan-18 19:14 32.858995 -117.291273 143 2730ft 121kts
01-Jan-18 19:15 32.833426 -117.269327 143 2408ft 102kts
01-Jan-18 19:16 32.814046 -117.252714 143 1987ft 102kts
01-Jan-18 19:17 32.786664 -117.228434 140 1777ft 116kts
01-Jan-18 19:18 32.766058 -117.210145 139 1410ft 100kts
01-Jan-18 19:19 32.749486 -117.178136 119 1037ft 96kts
01-Jan-18 19:20 32.729821 -117.171007 259 365ft 96kts
01-Jan-18 19:21 32.733439 -117.188364 353 18ft 11kts
01-Jan-18 19:22 32.734804 -117.188878 2 18ft 6kts
01-Jan-18 19:23 32.735151 -117.188643 352 18ft 0kts
01-Jan-18 19:24 32.735151 -117.188643 352 18ft 0kts

Navigation Log

Ident Type
Flight plan parsing failed, navigation log unavailable